createdAt,value
2023-03-05T00:00:09.450Z,29.91
2023-03-05T00:01:07.893Z,29.06
2023-03-05T00:02:07.063Z,28.79
2023-03-05T00:03:04.457Z,29.22
2023-03-05T00:04:03.535Z,27.79
2023-03-05T00:05:00.896Z,28.31
2023-03-05T00:05:58.445Z,28.34
2023-03-05T00:06:55.815Z,26.55
2023-03-05T00:07:53.212Z,26.00
2023-03-05T00:08:51.876Z,25.79
2023-03-05T00:09:49.222Z,25.71
2023-03-05T00:10:46.598Z,27.26
2023-03-05T00:11:44.047Z,27.29
2023-03-05T00:12:41.402Z,28.18
2023-03-05T00:13:39.480Z,29.19
2023-03-05T00:14:36.889Z,27.56
2023-03-05T00:15:34.205Z,27.02
2023-03-05T00:16:32.272Z,28.04
2023-03-05T00:17:29.760Z,28.33
2023-03-05T00:18:27.116Z,27.88
2023-03-05T00:19:24.511Z,27.26
2023-03-05T00:20:21.815Z,28.00
2023-03-05T00:21:24.445Z,27.28
2023-03-05T00:22:21.826Z,28.53
2023-03-05T00:23:19.141Z,28.37
2023-03-05T00:24:18.371Z,28.08
2023-03-05T00:25:15.772Z,26.30
2023-03-05T00:26:13.163Z,26.04
2023-03-05T00:27:10.884Z,27.79
2023-03-05T00:28:08.386Z,28.89
2023-03-05T00:29:07.210Z,35.98
2023-03-05T00:30:04.755Z,36.38
2023-03-05T00:31:02.270Z,34.32
2023-03-05T00:31:59.663Z,36.97
2023-03-05T00:32:57.073Z,37.45
2023-03-05T00:33:55.565Z,38.09
2023-03-05T00:34:52.909Z,38.75
2023-03-05T00:35:50.293Z,36.08
2023-03-05T00:36:49.350Z,35.34
2023-03-05T00:37:46.773Z,37.00
2023-03-05T00:38:44.166Z,38.69
2023-03-05T00:39:41.530Z,39.35
2023-03-05T00:40:40.143Z,39.55
2023-03-05T00:41:38.042Z,38.23
2023-03-05T00:42:38.650Z,37.58
2023-03-05T00:43:36.023Z,38.47
2023-03-05T00:44:33.385Z,38.38
2023-03-05T00:45:30.777Z,37.25
2023-03-05T00:46:28.895Z,38.09
2023-03-05T00:47:26.451Z,37.43
2023-03-05T00:48:23.920Z,38.15
2023-03-05T00:49:21.421Z,37.16
2023-03-05T00:50:18.845Z,36.52
2023-03-05T00:51:16.185Z,36.79
2023-03-05T00:52:13.552Z,37.46
2023-03-05T00:53:11.059Z,37.88
2023-03-05T00:54:08.620Z,38.47
2023-03-05T00:55:06.117Z,38.81
2023-03-05T00:56:03.689Z,39.20
2023-03-05T00:57:01.071Z,39.54
2023-03-05T00:57:58.462Z,39.03
2023-03-05T00:58:56.204Z,39.99
2023-03-05T00:59:53.573Z,41.39
2023-03-05T01:00:51.089Z,39.42
2023-03-05T01:01:48.492Z,38.69
2023-03-05T01:02:45.873Z,37.30
2023-03-05T01:03:43.394Z,34.80
2023-03-05T01:04:40.934Z,34.51
2023-03-05T01:05:38.321Z,35.60
2023-03-05T01:06:35.681Z,35.64
2023-03-05T01:07:33.085Z,40.41
2023-03-05T01:08:30.461Z,39.39
2023-03-05T01:09:27.996Z,39.24
2023-03-05T01:10:26.840Z,38.00
2023-03-05T01:11:24.289Z,35.69
2023-03-05T01:12:22.008Z,36.12
2023-03-05T01:13:19.850Z,37.67
2023-03-05T01:14:17.485Z,37.81
2023-03-05T01:15:14.942Z,37.39
2023-03-05T01:16:12.323Z,35.13
2023-03-05T01:17:09.756Z,34.10
2023-03-05T01:18:07.141Z,34.74
2023-03-05T01:19:04.515Z,34.42
2023-03-05T01:20:02.013Z,35.05
2023-03-05T01:20:59.457Z,35.32
2023-03-05T01:21:56.945Z,36.47
2023-03-05T01:22:54.648Z,35.88
2023-03-05T01:23:52.532Z,35.20
2023-03-05T01:24:49.944Z,34.73
2023-03-05T01:25:53.588Z,32.96
2023-03-05T01:26:51.616Z,34.07
2023-03-05T01:27:48.933Z,33.94
2023-03-05T01:28:46.270Z,32.02
2023-03-05T01:29:43.618Z,32.27
2023-03-05T01:30:40.930Z,33.41
2023-03-05T01:31:38.419Z,32.97
2023-03-05T01:32:36.168Z,32.34
2023-03-05T01:33:33.557Z,31.65
2023-03-05T01:34:30.899Z,32.24
2023-03-05T01:35:28.612Z,30.66
2023-03-05T01:36:26.244Z,30.01
2023-03-05T01:37:23.553Z,30.41
2023-03-05T01:38:20.871Z,31.02
2023-03-05T01:39:18.258Z,31.63
2023-03-05T01:40:17.425Z,31.28
2023-03-05T01:41:15.874Z,31.07
2023-03-05T01:42:13.299Z,31.62
2023-03-05T01:43:10.973Z,31.19
2023-03-05T01:44:17.718Z,30.60
2023-03-05T01:45:17.925Z,31.03
2023-03-05T01:46:16.745Z,30.19
2023-03-05T01:47:14.040Z,31.68
2023-03-05T01:48:11.391Z,32.37
2023-03-05T01:49:11.450Z,30.82
2023-03-05T01:50:11.429Z,31.26
2023-03-05T01:51:08.867Z,29.13
2023-03-05T01:52:11.226Z,29.93
2023-03-05T01:53:08.639Z,31.54
2023-03-05T01:54:08.704Z,31.07
2023-03-05T01:55:08.735Z,30.41
2023-03-05T01:56:06.606Z,30.44
2023-03-05T01:57:08.693Z,29.28
2023-03-05T01:58:12.840Z,29.65
2023-03-05T01:59:11.395Z,28.93
2023-03-05T02:00:11.890Z,29.41
2023-03-05T02:01:09.911Z,30.36
2023-03-05T02:02:08.248Z,30.41
2023-03-05T02:03:07.950Z,30.46
2023-03-05T02:04:07.186Z,31.79
2023-03-05T02:05:07.160Z,30.93
2023-03-05T02:06:04.631Z,29.81
2023-03-05T02:07:02.607Z,30.73
2023-03-05T02:08:01.119Z,28.55
2023-03-05T02:08:59.593Z,28.46
2023-03-05T02:09:57.001Z,28.44
2023-03-05T02:10:56.529Z,29.39
2023-03-05T02:11:54.104Z,28.06
2023-03-05T02:12:53.338Z,28.83
2023-03-05T02:13:50.684Z,27.59
2023-03-05T02:14:50.446Z,28.16
2023-03-05T02:15:49.770Z,28.55
2023-03-05T02:16:47.296Z,28.21
2023-03-05T02:17:45.284Z,27.96
2023-03-05T02:18:42.658Z,28.27
2023-03-05T02:19:54.759Z,28.48
2023-03-05T02:20:56.406Z,28.72
2023-03-05T02:21:54.091Z,28.18
2023-03-05T02:22:51.749Z,28.68
2023-03-05T02:23:49.098Z,27.75
2023-03-05T02:24:47.120Z,26.91
2023-03-05T02:25:44.634Z,28.11
2023-03-05T02:26:44.805Z,27.58
2023-03-05T02:27:45.547Z,27.86
2023-03-05T02:28:44.870Z,28.71
2023-03-05T02:29:45.644Z,27.84
2023-03-05T02:30:43.030Z,29.35
2023-03-05T02:31:40.459Z,27.83
2023-03-05T02:32:37.856Z,27.53
2023-03-05T02:33:35.294Z,28.29
2023-03-05T02:34:32.630Z,29.93
2023-03-05T02:35:29.992Z,29.54
2023-03-05T02:36:27.392Z,30.34
2023-03-05T02:37:24.716Z,28.51
2023-03-05T02:38:22.176Z,29.50
2023-03-05T02:39:19.543Z,28.91
2023-03-05T02:40:17.027Z,27.66
2023-03-05T02:41:14.663Z,29.04
2023-03-05T02:42:12.100Z,30.47
2023-03-05T02:43:09.799Z,29.88
2023-03-05T02:44:07.121Z,28.55
2023-03-05T02:45:05.181Z,28.73
2023-03-05T02:46:02.695Z,27.73
2023-03-05T02:47:00.199Z,28.47
2023-03-05T02:47:57.582Z,29.16
2023-03-05T02:48:54.955Z,28.36
2023-03-05T02:49:52.412Z,29.00
2023-03-05T02:50:49.904Z,29.94
2023-03-05T02:51:47.232Z,28.40
2023-03-05T02:52:44.615Z,28.65
2023-03-05T02:53:41.936Z,28.64
2023-03-05T02:54:39.244Z,29.94
2023-03-05T02:55:36.685Z,29.66
2023-03-05T02:56:33.991Z,27.98
2023-03-05T02:57:31.400Z,27.91
2023-03-05T02:58:28.846Z,27.69
2023-03-05T02:59:26.144Z,27.50
2023-03-05T03:00:23.555Z,27.63
2023-03-05T03:01:21.075Z,28.79
2023-03-05T03:02:18.530Z,29.62
2023-03-05T03:03:15.880Z,29.46
2023-03-05T03:04:13.288Z,30.60
2023-03-05T03:05:10.675Z,31.55
2023-03-05T03:06:08.064Z,30.71
2023-03-05T03:07:05.491Z,31.43
2023-03-05T03:08:03.428Z,32.34
2023-03-05T03:09:00.776Z,31.05
2023-03-05T03:09:58.101Z,31.44
2023-03-05T03:10:56.550Z,31.12
2023-03-05T03:11:53.906Z,30.76
2023-03-05T03:12:51.276Z,28.93
2023-03-05T03:13:48.644Z,29.94
2023-03-05T03:14:46.115Z,29.53
2023-03-05T03:15:43.548Z,27.56
2023-03-05T03:16:40.906Z,28.60
2023-03-05T03:17:38.858Z,29.15
2023-03-05T03:18:36.387Z,28.92
2023-03-05T03:19:33.841Z,30.09
2023-03-05T03:20:31.414Z,29.17
2023-03-05T03:21:28.751Z,29.68
2023-03-05T03:22:26.157Z,29.66
2023-03-05T03:23:23.806Z,29.80
2023-03-05T03:24:21.362Z,31.63
2023-03-05T03:25:21.594Z,32.03
2023-03-05T03:26:19.402Z,33.99
2023-03-05T03:27:16.795Z,33.89
2023-03-05T03:28:14.126Z,31.98
2023-03-05T03:29:11.439Z,32.38
2023-03-05T03:30:09.155Z,33.69
2023-03-05T03:31:06.633Z,32.67
2023-03-05T03:32:04.815Z,33.00
2023-03-05T03:33:02.200Z,34.17
2023-03-05T03:33:59.531Z,35.17
2023-03-05T03:34:57.512Z,34.75
2023-03-05T03:35:54.945Z,34.26
2023-03-05T03:36:55.516Z,32.22
2023-03-05T03:37:52.839Z,32.40
2023-03-05T03:38:50.240Z,33.84
2023-03-05T03:39:47.626Z,33.48
2023-03-05T03:40:45.039Z,33.65
2023-03-05T03:41:43.988Z,33.19
2023-03-05T03:42:41.320Z,34.17
2023-03-05T03:43:38.654Z,34.26
2023-03-05T03:44:35.967Z,34.12
2023-03-05T03:45:33.633Z,35.84
2023-03-05T03:46:31.117Z,35.84
2023-03-05T03:47:29.264Z,34.38
2023-03-05T03:48:26.620Z,36.19
2023-03-05T03:49:25.863Z,36.48
2023-03-05T03:50:25.001Z,37.11
2023-03-05T03:51:22.416Z,36.61
2023-03-05T03:52:19.787Z,36.75
2023-03-05T03:53:17.563Z,37.10
2023-03-05T03:54:16.217Z,36.99
2023-03-05T03:55:13.563Z,36.49
2023-03-05T03:56:10.960Z,37.44
2023-03-05T03:57:08.327Z,37.83
2023-03-05T03:58:05.638Z,38.70
2023-03-05T03:59:03.105Z,37.39
2023-03-05T04:00:00.557Z,37.20
2023-03-05T04:00:57.881Z,36.73
2023-03-05T04:01:55.347Z,37.50
2023-03-05T04:02:52.779Z,38.14
2023-03-05T04:03:50.148Z,39.08
2023-03-05T04:04:47.476Z,36.10
2023-03-05T04:05:44.802Z,35.66
2023-03-05T04:06:42.846Z,34.76
2023-03-05T04:07:40.226Z,36.50
2023-03-05T04:08:37.554Z,37.13
2023-03-05T04:09:34.948Z,37.43
2023-03-05T04:10:32.285Z,35.59
2023-03-05T04:11:29.620Z,35.36
2023-03-05T04:12:26.917Z,34.77
2023-03-05T04:13:24.310Z,35.11
2023-03-05T04:14:21.624Z,35.61
2023-03-05T04:15:19.555Z,35.17
2023-03-05T04:16:17.669Z,37.01
2023-03-05T04:17:16.047Z,36.42
2023-03-05T04:18:13.411Z,34.66
2023-03-05T04:19:10.862Z,36.20
2023-03-05T04:20:10.533Z,34.86
2023-03-05T04:21:08.212Z,32.66
2023-03-05T04:22:06.309Z,32.56
2023-03-05T04:23:03.742Z,33.92
2023-03-05T04:24:01.127Z,35.82
2023-03-05T04:24:58.894Z,34.90
2023-03-05T04:25:56.318Z,35.45
2023-03-05T04:26:53.700Z,33.81
2023-03-05T04:27:51.396Z,33.47
2023-03-05T04:28:49.324Z,33.77
2023-03-05T04:29:46.755Z,32.75
2023-03-05T04:30:44.093Z,34.30
2023-03-05T04:31:41.509Z,34.23
2023-03-05T04:32:38.962Z,33.95
2023-03-05T04:33:36.336Z,33.91
2023-03-05T04:34:33.692Z,34.70
2023-03-05T04:35:31.122Z,34.04
2023-03-05T04:36:28.512Z,34.24
2023-03-05T04:37:26.245Z,34.42
2023-03-05T04:38:23.580Z,34.88
2023-03-05T04:39:21.018Z,35.21
2023-03-05T04:40:19.421Z,33.73
2023-03-05T04:41:16.853Z,31.61
2023-03-05T04:42:16.270Z,32.56
2023-03-05T04:43:13.737Z,31.01
2023-03-05T04:44:11.141Z,34.29
2023-03-05T04:45:08.859Z,33.10
2023-03-05T04:46:06.230Z,30.65
2023-03-05T04:47:03.624Z,32.19
2023-03-05T04:48:01.026Z,33.97
2023-03-05T04:48:59.207Z,36.35
2023-03-05T04:49:56.557Z,36.40
2023-03-05T04:50:53.909Z,36.16
2023-03-05T04:51:51.315Z,39.21
2023-03-05T04:52:48.743Z,37.04
2023-03-05T04:53:46.095Z,37.11
2023-03-05T04:54:44.880Z,34.97
2023-03-05T04:55:42.850Z,34.17
2023-03-05T04:56:40.184Z,32.94
2023-03-05T04:57:37.673Z,33.69
2023-03-05T04:58:35.088Z,34.31
2023-03-05T04:59:32.774Z,33.52
2023-03-05T05:00:30.250Z,35.98
2023-03-05T05:01:27.676Z,35.27
2023-03-05T05:02:25.241Z,33.70
2023-03-05T05:03:22.660Z,33.71
2023-03-05T05:04:20.046Z,33.21
2023-03-05T05:05:21.546Z,33.14
2023-03-05T05:06:18.912Z,32.42
2023-03-05T05:07:16.343Z,33.41
2023-03-05T05:08:13.781Z,35.27
2023-03-05T05:09:11.132Z,35.92
2023-03-05T05:10:09.819Z,34.41
2023-03-05T05:11:08.180Z,33.81
2023-03-05T05:12:05.612Z,32.76
2023-03-05T05:13:03.065Z,33.69
2023-03-05T05:14:00.373Z,33.43
2023-03-05T05:14:57.852Z,32.95
2023-03-05T05:15:56.086Z,34.25
2023-03-05T05:16:53.609Z,36.03
2023-03-05T05:17:51.073Z,36.71
2023-03-05T05:18:48.512Z,34.50
2023-03-05T05:19:45.828Z,34.34
2023-03-05T05:20:43.275Z,33.70
2023-03-05T05:21:40.666Z,32.23
2023-03-05T05:22:38.076Z,34.45
2023-03-05T05:23:35.443Z,33.39
2023-03-05T05:24:32.804Z,32.17
2023-03-05T05:25:30.133Z,33.33
2023-03-05T05:26:27.929Z,32.28
2023-03-05T05:27:25.313Z,33.45
2023-03-05T05:28:22.688Z,33.40
2023-03-05T05:29:20.020Z,34.34
2023-03-05T05:30:17.366Z,35.49
2023-03-05T05:31:16.183Z,36.10
2023-03-05T05:32:13.582Z,35.80
2023-03-05T05:33:11.006Z,35.67
2023-03-05T05:34:08.425Z,37.39
2023-03-05T05:35:05.969Z,37.63
2023-03-05T05:36:07.560Z,35.61
2023-03-05T05:37:04.890Z,35.57
2023-03-05T05:38:02.223Z,34.01
2023-03-05T05:38:59.543Z,35.84
2023-03-05T05:39:56.885Z,35.24
2023-03-05T05:40:54.157Z,36.08
2023-03-05T05:41:52.722Z,33.70
2023-03-05T05:42:50.054Z,36.18
2023-03-05T05:43:48.860Z,37.15
2023-03-05T05:44:47.621Z,36.89
2023-03-05T05:45:45.460Z,36.69
2023-03-05T05:46:42.991Z,35.30
2023-03-05T05:47:40.410Z,34.58
2023-03-05T05:48:37.839Z,32.49
2023-03-05T05:49:35.240Z,31.71
2023-03-05T05:50:32.653Z,30.89
2023-03-05T05:51:30.016Z,29.97
2023-03-05T05:52:27.429Z,29.40
2023-03-05T05:53:25.041Z,30.35
2023-03-05T05:54:22.356Z,28.81
2023-03-05T05:55:19.768Z,29.53
2023-03-05T05:56:18.153Z,30.20
2023-03-05T05:57:16.060Z,29.84
2023-03-05T05:58:13.527Z,30.78
2023-03-05T05:59:10.961Z,31.97
2023-03-05T06:00:10.040Z,29.28
2023-03-05T06:01:14.405Z,30.21
2023-03-05T06:02:11.764Z,29.56
2023-03-05T06:03:09.171Z,29.62
2023-03-05T06:04:06.498Z,28.86
2023-03-05T06:05:03.917Z,28.27
2023-03-05T06:06:01.952Z,27.75
2023-03-05T06:06:59.995Z,30.94
2023-03-05T06:07:57.481Z,29.92
2023-03-05T06:08:55.456Z,29.66
2023-03-05T06:09:52.732Z,30.84
2023-03-05T06:10:56.166Z,28.35
2023-03-05T06:11:53.535Z,28.55
2023-03-05T06:12:50.857Z,29.41
2023-03-05T06:13:49.043Z,27.63
2023-03-05T06:14:46.408Z,27.52
2023-03-05T06:15:43.688Z,28.80
2023-03-05T06:16:41.593Z,28.84
2023-03-05T06:17:39.175Z,29.32
2023-03-05T06:18:36.629Z,29.62
2023-03-05T06:19:33.986Z,28.15
2023-03-05T06:20:31.297Z,28.10
2023-03-05T06:21:28.636Z,28.61
2023-03-05T06:22:25.956Z,27.87
2023-03-05T06:23:23.712Z,28.23
2023-03-05T06:24:22.325Z,29.96
2023-03-05T06:25:19.727Z,28.30
2023-03-05T06:26:19.085Z,30.33
2023-03-05T06:27:16.412Z,30.49
2023-03-05T06:28:13.850Z,30.61
2023-03-05T06:29:11.130Z,30.09
2023-03-05T06:30:10.356Z,31.24
2023-03-05T06:31:10.190Z,30.92
2023-03-05T06:32:07.635Z,31.27
2023-03-05T06:33:04.936Z,33.55
2023-03-05T06:34:02.360Z,31.16
2023-03-05T06:34:59.656Z,32.92
2023-03-05T06:35:57.483Z,32.82
2023-03-05T06:36:54.837Z,32.46
2023-03-05T06:37:52.180Z,32.51
2023-03-05T06:38:51.068Z,33.60
2023-03-05T06:39:49.439Z,32.62
2023-03-05T06:40:46.843Z,31.42
2023-03-05T06:41:44.799Z,31.98
2023-03-05T06:42:42.119Z,31.72
2023-03-05T06:43:40.843Z,32.70
2023-03-05T06:44:40.311Z,34.30
2023-03-05T06:45:38.233Z,31.47
2023-03-05T06:46:37.537Z,33.12
2023-03-05T06:47:35.191Z,32.47
2023-03-05T06:48:32.648Z,33.41
2023-03-05T06:49:29.997Z,32.61
2023-03-05T06:50:27.409Z,33.94
2023-03-05T06:51:29.248Z,34.01
2023-03-05T06:52:26.637Z,33.49
2023-03-05T06:53:24.940Z,33.70
2023-03-05T06:54:22.306Z,34.03
2023-03-05T06:55:19.693Z,33.04
2023-03-05T06:56:17.694Z,32.32
2023-03-05T06:57:15.005Z,32.46
2023-03-05T06:58:12.361Z,32.90
2023-03-05T06:59:11.306Z,32.37
2023-03-05T07:00:12.081Z,31.79
2023-03-05T07:01:09.487Z,33.52
2023-03-05T07:02:09.931Z,32.28
2023-03-05T07:03:07.215Z,31.96
2023-03-05T07:04:05.045Z,32.35
2023-03-05T07:05:02.344Z,32.51
2023-03-05T07:06:02.053Z,32.40
2023-03-05T07:07:00.511Z,32.11
2023-03-05T07:07:57.847Z,31.08
2023-03-05T07:08:56.299Z,31.80
2023-03-05T07:09:53.837Z,32.91
2023-03-05T07:10:51.188Z,33.96
2023-03-05T07:11:48.479Z,33.63
2023-03-05T07:12:45.835Z,33.91
2023-03-05T07:13:43.634Z,33.77
2023-03-05T07:14:41.056Z,32.74
2023-03-05T07:15:39.838Z,33.90
2023-03-05T07:16:37.268Z,35.39
2023-03-05T07:17:34.620Z,33.79
2023-03-05T07:18:32.156Z,33.02
2023-03-05T07:19:29.520Z,33.44
2023-03-05T07:20:26.898Z,32.74
2023-03-05T07:21:25.599Z,33.57
2023-03-05T07:22:22.909Z,32.57
2023-03-05T07:23:20.257Z,29.30
2023-03-05T07:24:17.552Z,30.34
2023-03-05T07:25:19.403Z,28.34
2023-03-05T07:26:17.050Z,28.18
2023-03-05T07:27:14.358Z,28.93
2023-03-05T07:28:11.721Z,28.84
2023-03-05T07:29:09.381Z,27.93
2023-03-05T07:30:07.335Z,27.94
2023-03-05T07:31:06.354Z,27.87
2023-03-05T07:32:03.900Z,29.55
2023-03-05T07:33:02.160Z,29.82
2023-03-05T07:34:01.528Z,27.23
2023-03-05T07:34:58.868Z,26.38
2023-03-05T07:35:56.287Z,26.09
2023-03-05T07:36:53.689Z,29.71
2023-03-05T07:37:51.783Z,29.31
2023-03-05T07:38:49.224Z,29.11
2023-03-05T07:39:47.393Z,30.67
2023-03-05T07:40:44.801Z,31.94
2023-03-05T07:41:42.199Z,32.70
2023-03-05T07:42:39.607Z,31.45
2023-03-05T07:43:37.226Z,32.27
2023-03-05T07:44:34.586Z,30.60
2023-03-05T07:45:32.197Z,32.09
2023-03-05T07:46:30.890Z,30.61
2023-03-05T07:47:28.275Z,27.16
2023-03-05T07:48:26.100Z,25.42
2023-03-05T07:49:23.848Z,24.91
2023-03-05T07:50:21.126Z,24.86
2023-03-05T07:51:20.119Z,24.56
2023-03-05T07:52:17.774Z,24.71
2023-03-05T07:53:15.929Z,26.35
2023-03-05T07:54:13.280Z,25.92
2023-03-05T07:55:10.825Z,23.35
2023-03-05T07:56:08.527Z,24.83
2023-03-05T07:57:06.792Z,24.71
2023-03-05T07:58:04.130Z,25.69
2023-03-05T07:59:02.851Z,24.99
2023-03-05T08:00:00.200Z,25.73
2023-03-05T08:00:57.556Z,24.52
2023-03-05T08:01:54.932Z,24.77
2023-03-05T08:02:52.366Z,25.86
2023-03-05T08:03:49.760Z,25.61
2023-03-05T08:04:47.093Z,24.72
2023-03-05T08:05:44.453Z,23.74
2023-03-05T08:06:42.144Z,24.44
2023-03-05T08:07:39.485Z,23.93
2023-03-05T08:08:36.956Z,22.90
2023-03-05T08:09:34.261Z,24.78
2023-03-05T08:10:31.621Z,23.48
2023-03-05T08:11:28.999Z,23.57
2023-03-05T08:12:26.410Z,25.35
2023-03-05T08:13:23.713Z,25.84
2023-03-05T08:14:21.149Z,24.95
2023-03-05T08:15:18.614Z,24.99
2023-03-05T08:16:17.894Z,23.66
2023-03-05T08:17:15.249Z,24.03
2023-03-05T08:18:13.853Z,24.31
2023-03-05T08:19:11.279Z,23.33
2023-03-05T08:20:11.855Z,23.18
2023-03-05T08:21:18.213Z,23.71
2023-03-05T08:22:20.484Z,24.72
2023-03-05T08:23:17.778Z,23.55
2023-03-05T08:24:15.219Z,23.61
2023-03-05T08:25:13.012Z,23.48
2023-03-05T08:26:16.999Z,23.25
2023-03-05T08:27:14.353Z,23.09
2023-03-05T08:28:11.678Z,23.32
2023-03-05T08:29:10.308Z,23.81
2023-03-05T08:30:08.529Z,23.45
2023-03-05T08:31:09.589Z,23.08
2023-03-05T08:32:07.052Z,23.40
2023-03-05T08:33:04.505Z,23.12
2023-03-05T08:34:02.711Z,22.69
2023-03-05T08:35:00.072Z,23.58
2023-03-05T08:35:57.465Z,25.34
2023-03-05T08:36:54.872Z,26.34
2023-03-05T08:37:52.348Z,26.60
2023-03-05T08:38:50.679Z,25.38
2023-03-05T08:39:50.843Z,25.36
2023-03-05T08:40:48.319Z,23.92
2023-03-05T08:41:46.010Z,23.56
2023-03-05T08:42:43.884Z,24.17
2023-03-05T08:43:41.272Z,24.08
2023-03-05T08:44:38.610Z,24.67
2023-03-05T08:45:35.964Z,24.48
2023-03-05T08:46:33.414Z,22.64
2023-03-05T08:47:30.794Z,24.17
2023-03-05T08:48:28.680Z,24.18
2023-03-05T08:49:26.143Z,23.86
2023-03-05T08:50:23.704Z,24.23
2023-03-05T08:51:25.762Z,23.66
2023-03-05T08:52:23.255Z,23.64
2023-03-05T08:53:20.582Z,25.24
2023-03-05T08:54:17.954Z,25.37
2023-03-05T08:55:15.359Z,24.40
2023-03-05T08:56:12.942Z,23.62
2023-03-05T08:57:10.288Z,23.88
2023-03-05T08:58:10.689Z,24.51
2023-03-05T08:59:08.700Z,24.56
2023-03-05T09:00:07.398Z,24.24
2023-03-05T09:01:05.253Z,23.56
2023-03-05T09:02:02.852Z,24.16
2023-03-05T09:03:00.333Z,25.07
2023-03-05T09:03:59.149Z,24.12
2023-03-05T09:04:56.492Z,25.28
2023-03-05T09:05:56.571Z,25.09
2023-03-05T09:06:53.895Z,25.00
2023-03-05T09:07:51.292Z,23.87
2023-03-05T09:08:48.651Z,25.37
2023-03-05T09:09:45.967Z,25.03
2023-03-05T09:10:43.755Z,25.03
2023-03-05T09:11:41.189Z,24.19
2023-03-05T09:12:38.563Z,23.06
2023-03-05T09:13:36.580Z,24.06
2023-03-05T09:14:33.898Z,23.59
2023-03-05T09:15:31.406Z,22.80
2023-03-05T09:16:28.966Z,24.25
2023-03-05T09:17:26.390Z,24.92
2023-03-05T09:18:23.830Z,24.33
2023-03-05T09:19:21.184Z,23.80
2023-03-05T09:20:18.786Z,24.46
2023-03-05T09:21:17.692Z,25.06
2023-03-05T09:22:15.299Z,25.31
2023-03-05T09:23:12.585Z,24.51
2023-03-05T09:24:10.231Z,24.82
2023-03-05T09:25:08.229Z,24.53
2023-03-05T09:26:06.276Z,25.01
2023-03-05T09:27:03.729Z,24.81
2023-03-05T09:28:01.082Z,25.23
2023-03-05T09:28:58.391Z,24.19
2023-03-05T09:29:55.697Z,25.50
2023-03-05T09:30:53.025Z,26.39
2023-03-05T09:31:51.237Z,26.29
2023-03-05T09:32:48.702Z,26.32
2023-03-05T09:33:47.189Z,25.67
2023-03-05T09:34:44.593Z,26.20
2023-03-05T09:35:41.963Z,25.84
2023-03-05T09:36:39.352Z,25.44
2023-03-05T09:37:36.704Z,25.03
2023-03-05T09:38:34.031Z,24.89
2023-03-05T09:39:31.440Z,25.05
2023-03-05T09:40:32.033Z,24.57
2023-03-05T09:41:47.461Z,24.48
2023-03-05T09:42:54.390Z,24.78
2023-03-05T09:44:03.804Z,25.08
2023-03-05T09:45:14.033Z,23.63
2023-03-05T09:46:39.154Z,24.83
2023-03-05T09:47:46.618Z,24.28
2023-03-05T09:48:43.970Z,23.53
2023-03-05T09:49:53.174Z,24.03
2023-03-05T09:51:04.802Z,25.45
2023-03-05T09:52:07.926Z,24.30
2023-03-05T09:53:17.388Z,23.56
2023-03-05T09:54:21.568Z,25.69
2023-03-05T09:55:34.135Z,26.09
2023-03-05T09:56:41.773Z,24.80
2023-03-05T09:57:42.605Z,24.79
2023-03-05T09:58:39.970Z,23.78
2023-03-05T10:00:12.691Z,24.69
2023-03-05T10:01:15.904Z,24.42
2023-03-05T10:02:18.326Z,24.13
2023-03-05T10:03:18.477Z,24.51
2023-03-05T10:04:45.797Z,25.05
2023-03-05T10:05:49.288Z,25.95
2023-03-05T10:06:49.469Z,24.04
2023-03-05T10:07:54.645Z,23.73
2023-03-05T10:08:54.979Z,23.70
2023-03-05T10:09:58.245Z,22.93
2023-03-05T10:10:55.807Z,22.88
2023-03-05T10:12:17.416Z,24.33
2023-03-05T10:13:24.015Z,22.48
2023-03-05T10:14:30.572Z,22.98
2023-03-05T10:15:35.678Z,22.50
2023-03-05T10:16:35.854Z,21.79
2023-03-05T10:17:36.081Z,21.51
2023-03-05T10:18:43.240Z,20.84
2023-03-05T10:19:43.303Z,22.47
2023-03-05T10:20:50.393Z,22.25
2023-03-05T10:21:53.788Z,22.03
2023-03-05T10:22:51.110Z,21.30
2023-03-05T10:23:58.866Z,21.28
2023-03-05T10:25:14.306Z,21.70
2023-03-05T10:26:21.629Z,22.27
2023-03-05T10:27:35.038Z,21.95
2023-03-05T10:28:44.390Z,22.08
2023-03-05T10:29:58.088Z,21.53
2023-03-05T10:31:01.213Z,22.20
2023-03-05T10:32:04.460Z,20.92
2023-03-05T10:33:01.924Z,20.87
2023-03-05T10:33:59.201Z,21.62
2023-03-05T10:35:11.704Z,21.82
2023-03-05T10:36:11.782Z,20.09
2023-03-05T10:37:27.692Z,20.14
2023-03-05T10:38:31.518Z,20.25
2023-03-05T10:39:54.980Z,20.59
2023-03-05T10:40:54.718Z,22.40
2023-03-05T10:42:05.913Z,21.00
2023-03-05T10:43:20.419Z,19.38
2023-03-05T10:44:27.805Z,19.53
2023-03-05T10:45:29.560Z,18.70
2023-03-05T10:46:32.307Z,18.83
2023-03-05T10:47:29.661Z,18.55
2023-03-05T10:48:43.980Z,18.32
2023-03-05T10:49:48.441Z,19.26
2023-03-05T10:50:52.121Z,18.33
2023-03-05T10:51:49.509Z,18.92
2023-03-05T10:52:51.923Z,19.01
2023-03-05T10:53:55.994Z,18.96
2023-03-05T10:54:53.376Z,18.45
2023-03-05T10:55:56.093Z,19.45
2023-03-05T10:57:15.799Z,18.76
2023-03-05T10:58:15.430Z,17.49
2023-03-05T10:59:12.735Z,17.12
2023-03-05T11:00:16.168Z,18.19
2023-03-05T11:01:13.891Z,17.25
2023-03-05T11:02:11.218Z,16.93
2023-03-05T11:03:10.242Z,18.06
2023-03-05T11:04:25.085Z,16.60
2023-03-05T11:05:31.344Z,17.58
2023-03-05T11:06:36.420Z,17.04
2023-03-05T11:07:35.180Z,16.07
2023-03-05T11:08:36.564Z,15.64
2023-03-05T11:09:33.997Z,15.46
2023-03-05T11:10:31.372Z,17.44
2023-03-05T11:11:31.027Z,17.57
2023-03-05T11:12:38.161Z,17.42
2023-03-05T11:13:42.534Z,17.83
2023-03-05T11:14:41.940Z,17.43
2023-03-05T11:15:39.277Z,17.52
2023-03-05T11:16:47.071Z,18.54
2023-03-05T11:17:49.020Z,18.25
2023-03-05T11:18:46.875Z,18.17
2023-03-05T11:19:44.362Z,18.08
2023-03-05T11:20:41.776Z,18.50
2023-03-05T11:21:39.109Z,18.14
2023-03-05T11:22:36.506Z,18.28
2023-03-05T11:23:33.852Z,19.60
2023-03-05T11:24:31.172Z,19.09
2023-03-05T11:25:28.592Z,19.06
2023-03-05T11:26:25.961Z,19.69
2023-03-05T11:27:32.587Z,19.49
2023-03-05T11:28:35.107Z,19.20
2023-03-05T11:29:34.727Z,19.62
2023-03-05T11:30:34.560Z,19.69
2023-03-05T11:31:33.599Z,19.46
2023-03-05T11:32:31.580Z,19.92
2023-03-05T11:33:29.588Z,17.67
2023-03-05T11:34:35.055Z,18.11
2023-03-05T11:35:34.442Z,17.39
2023-03-05T11:36:43.259Z,18.66
2023-03-05T11:37:40.550Z,18.15
2023-03-05T11:38:56.527Z,18.21
2023-03-05T11:40:12.362Z,17.01
2023-03-05T11:41:09.904Z,17.44
2023-03-05T11:42:13.886Z,17.29
2023-03-05T11:43:19.706Z,16.82
2023-03-05T11:44:26.792Z,16.74
2023-03-05T11:45:26.010Z,18.31
2023-03-05T11:46:24.204Z,18.01
2023-03-05T11:47:45.372Z,17.73
2023-03-05T11:48:45.641Z,16.50
2023-03-05T11:49:44.997Z,16.35
2023-03-05T11:50:43.908Z,15.10
2023-03-05T11:51:45.680Z,14.61
2023-03-05T11:52:46.374Z,15.07
2023-03-05T11:53:47.198Z,14.76
2023-03-05T11:55:03.293Z,14.10
2023-03-05T11:56:05.695Z,14.08
2023-03-05T11:57:03.844Z,13.69
2023-03-05T11:58:01.182Z,14.16
2023-03-05T11:59:14.686Z,13.74
2023-03-05T12:00:16.160Z,13.91
2023-03-05T12:01:22.667Z,15.65
2023-03-05T12:02:23.304Z,16.59
2023-03-05T12:03:24.821Z,16.17
2023-03-05T12:04:22.518Z,15.27
2023-03-05T12:05:20.609Z,15.65
2023-03-05T12:06:17.883Z,15.38
2023-03-05T12:07:18.200Z,16.52
2023-03-05T12:08:23.065Z,18.62
2023-03-05T12:09:20.367Z,17.80
2023-03-05T12:10:20.907Z,18.99
2023-03-05T12:11:20.990Z,17.03
2023-03-05T12:12:29.635Z,18.22
2023-03-05T12:13:41.677Z,17.69
2023-03-05T12:14:46.999Z,17.50
2023-03-05T12:15:50.188Z,16.18
2023-03-05T12:17:10.612Z,16.38
2023-03-05T12:18:25.398Z,16.66
2023-03-05T12:19:25.830Z,15.34
2023-03-05T12:20:41.940Z,14.73
2023-03-05T12:21:41.505Z,16.20
2023-03-05T12:22:40.888Z,16.60
2023-03-05T12:24:07.306Z,15.96
2023-03-05T12:25:17.058Z,16.65
2023-03-05T12:26:14.805Z,16.72
2023-03-05T12:27:15.713Z,16.75
2023-03-05T12:28:31.599Z,16.33
2023-03-05T12:29:30.987Z,16.27
2023-03-05T12:30:34.041Z,17.68
2023-03-05T12:31:38.025Z,19.14
2023-03-05T12:32:35.571Z,19.30
2023-03-05T12:33:32.911Z,18.86
2023-03-05T12:34:44.971Z,19.37
2023-03-05T12:35:42.865Z,19.10
2023-03-05T12:36:40.882Z,19.24
2023-03-05T12:37:44.076Z,19.27
2023-03-05T12:38:41.584Z,20.06
2023-03-05T12:39:45.257Z,18.47
2023-03-05T12:40:43.007Z,18.95
2023-03-05T12:41:40.595Z,18.83
2023-03-05T12:42:37.903Z,19.29
2023-03-05T12:43:36.273Z,19.50